sensor_id;sensor_type;location;lat;lon;timestamp;pressure;altitude;pressure_sealevel;temperature;humidity
41632;BME280;37452;51.938;4.624;2023-07-16T00:01:34;75814.47;;;-142.75;100.00
41632;BME280;37452;51.938;4.624;2023-07-16T00:03:59;75822.34;;;-142.75;100.00
41632;BME280;37452;51.938;4.624;2023-07-16T00:06:24;75818.41;;;-142.75;100.00
41632;BME280;37452;51.938;4.624;2023-07-16T00:08:50;75822.34;;;-142.75;100.00
41632;BME280;37452;51.938;4.624;2023-07-16T00:11:15;75822.34;;;-142.75;100.00
41632;BME280;37452;51.938;4.624;2023-07-16T00:13:41;75820.38;;;-142.75;100.00
41632;BME280;37452;51.938;4.624;2023-07-16T00:16:11;75824.31;;;-142.75;100.00
41632;BME280;37452;51.938;4.624;2023-07-16T00:18:36;75826.28;;;-142.75;100.00
41632;BME280;37452;51.938;4.624;2023-07-16T00:21:02;75828.25;;;-142.75;100.00
41632;BME280;37452;51.938;4.624;2023-07-16T00:23:27;75828.25;;;-142.75;100.00
41632;BME280;37452;51.938;4.624;2023-07-16T00:25:53;75824.31;;;-142.75;100.00
41632;BME280;37452;51.938;4.624;2023-07-16T00:28:18;75816.44;;;-142.75;100.00
41632;BME280;37452;51.938;4.624;2023-07-16T00:30:43;75826.28;;;-142.75;100.00
41632;BME280;37452;51.938;4.624;2023-07-16T00:33:09;75834.16;;;-142.75;100.00
41632;BME280;37452;51.938;4.624;2023-07-16T00:35:34;75836.13;;;-142.75;100.00
41632;BME280;37452;51.938;4.624;2023-07-16T00:37:59;75836.13;;;-142.75;100.00
41632;BME280;37452;51.938;4.624;2023-07-16T00:40:25;75838.09;;;-142.75;100.00
41632;BME280;37452;51.938;4.624;2023-07-16T00:42:50;75842.03;;;-142.75;100.00
41632;BME280;37452;51.938;4.624;2023-07-16T00:45:16;75830.22;;;-142.75;100.00
41632;BME280;37452;51.938;4.624;2023-07-16T00:47:42;75828.25;;;-142.75;100.00
41632;BME280;37452;51.938;4.624;2023-07-16T00:50:10;75826.28;;;-142.75;100.00
41632;BME280;37452;51.938;4.624;2023-07-16T00:52:36;75844.00;;;-142.75;100.00
41632;BME280;37452;51.938;4.624;2023-07-16T00:55:02;75834.16;;;-142.75;100.00
41632;BME280;37452;51.938;4.624;2023-07-16T00:57:28;75838.09;;;-142.75;100.00
41632;BME280;37452;51.938;4.624;2023-07-16T00:59:54;75865.63;;;-142.75;100.00
41632;BME280;37452;51.938;4.624;2023-07-16T01:02:19;75845.97;;;-142.75;100.00
41632;BME280;37452;51.938;4.624;2023-07-16T01:04:45;75847.94;;;-142.75;100.00
41632;BME280;37452;51.938;4.624;2023-07-16T01:07:11;75853.84;;;-142.75;100.00
41632;BME280;37452;51.938;4.624;2023-07-16T01:09:41;75836.13;;;-142.75;100.00
41632;BME280;37452;51.938;4.624;2023-07-16T01:12:07;75842.03;;;-142.75;100.00
41632;BME280;37452;51.938;4.624;2023-07-16T01:14:34;75822.34;;;-142.75;100.00
41632;BME280;37452;51.938;4.624;2023-07-16T01:17:05;75828.25;;;-142.75;100.00
41632;BME280;37452;51.938;4.624;2023-07-16T01:19:32;75853.84;;;-142.75;100.00
41632;BME280;37452;51.938;4.624;2023-07-16T01:30:18;75840.06;;;-142.75;100.00
41632;BME280;37452;51.938;4.624;2023-07-16T01:32:44;75842.03;;;-142.75;100.00
41632;BME280;37452;51.938;4.624;2023-07-16T01:35:11;75847.94;;;-142.75;100.00
41632;BME280;37452;51.938;4.624;2023-07-16T01:37:37;75842.03;;;-142.75;100.00
41632;BME280;37452;51.938;4.624;2023-07-16T01:40:03;75842.03;;;-142.75;100.00
41632;BME280;37452;51.938;4.624;2023-07-16T01:42:29;75857.78;;;-142.75;100.00
41632;BME280;37452;51.938;4.624;2023-07-16T01:44:54;75853.84;;;-142.75;100.00
41632;BME280;37452;51.938;4.624;2023-07-16T01:47:29;75845.97;;;-142.75;100.00
41632;BME280;37452;51.938;4.624;2023-07-16T01:50:00;75869.56;;;-142.75;100.00
41632;BME280;37452;51.938;4.624;2023-07-16T01:52:26;75891.22;;;-142.75;100.00
41632;BME280;37452;51.938;4.624;2023-07-16T01:54:51;75869.56;;;-142.75;100.00
41632;BME280;37452;51.938;4.624;2023-07-16T01:57:16;75873.50;;;-142.75;100.00
41632;BME280;37452;51.938;4.624;2023-07-16T01:59:42;75863.66;;;-142.75;100.00
41632;BME280;37452;51.938;4.624;2023-07-16T02:02:07;75855.81;;;-142.75;100.00
41632;BME280;37452;51.938;4.624;2023-07-16T02:04:32;75865.63;;;-142.75;100.00
41632;BME280;37452;51.938;4.624;2023-07-16T02:06:58;75869.56;;;-142.75;100.00
41632;BME280;37452;51.938;4.624;2023-07-16T02:09:23;75877.44;;;-142.75;100.00
41632;BME280;37452;51.938;4.624;2023-07-16T02:11:50;75859.72;;;-142.75;100.00
41632;BME280;37452;51.938;4.624;2023-07-16T02:14:15;75875.47;;;-142.75;100.00
41632;BME280;37452;51.938;4.624;2023-07-16T02:16:41;75865.63;;;-142.75;100.00
41632;BME280;37452;51.938;4.624;2023-07-16T02:19:06;75871.53;;;-142.75;100.00
41632;BME280;37452;51.938;4.624;2023-07-16T02:21:32;75861.69;;;-142.75;100.00
41632;BME280;37452;51.938;4.624;2023-07-16T02:23:57;75875.47;;;-142.75;100.00
41632;BME280;37452;51.938;4.624;2023-07-16T02:26:22;75875.47;;;-142.75;100.00
41632;BME280;37452;51.938;4.624;2023-07-16T02:28:48;75869.56;;;-142.75;100.00
41632;BME280;37452;51.938;4.624;2023-07-16T02:31:13;75865.63;;;-142.75;100.00
41632;BME280;37452;51.938;4.624;2023-07-16T02:33:38;75871.53;;;-142.75;100.00
41632;BME280;37452;51.938;4.624;2023-07-16T02:36:04;75873.50;;;-142.75;100.00
41632;BME280;37452;51.938;4.624;2023-07-16T02:38:29;75861.69;;;-142.75;100.00
41632;BME280;37452;51.938;4.624;2023-07-16T02:40:55;75861.69;;;-142.75;100.00
41632;BME280;37452;51.938;4.624;2023-07-16T02:43:20;75877.44;;;-142.75;100.00
41632;BME280;37452;51.938;4.624;2023-07-16T02:45:45;75861.69;;;-142.75;100.00
41632;BME280;37452;51.938;4.624;2023-07-16T02:48:10;75869.56;;;-142.75;100.00
41632;BME280;37452;51.938;4.624;2023-07-16T02:50:37;75879.41;;;-142.75;100.00
41632;BME280;37452;51.938;4.624;2023-07-16T02:53:06;75849.91;;;-142.75;100.00
41632;BME280;37452;51.938;4.624;2023-07-16T02:55:32;75865.63;;;-142.75;100.00
41632;BME280;37452;51.938;4.624;2023-07-16T02:57:57;75885.31;;;-142.75;100.00
41632;BME280;37452;51.938;4.624;2023-07-16T03:00:23;75881.38;;;-142.75;100.00
41632;BME280;37452;51.938;4.624;2023-07-16T03:02:48;75893.19;;;-142.75;100.00
41632;BME280;37452;51.938;4.624;2023-07-16T03:05:17;75924.69;;;-142.75;100.00
41632;BME280;37452;51.938;4.624;2023-07-16T03:07:43;75901.06;;;-142.75;100.00
41632;BME280;37452;51.938;4.624;2023-07-16T03:10:08;75889.25;;;-142.75;100.00
41632;BME280;37452;51.938;4.624;2023-07-16T03:12:34;75912.88;;;-142.75;100.00
41632;BME280;37452;51.938;4.624;2023-07-16T03:14:59;75899.09;;;-142.75;100.00
41632;BME280;37452;51.938;4.624;2023-07-16T03:17:25;75918.78;;;-142.75;100.00
41632;BME280;37452;51.938;4.624;2023-07-16T03:19:50;75910.91;;;-142.75;100.00
41632;BME280;37452;51.938;4.624;2023-07-16T03:22:15;75938.47;;;-142.75;100.00
41632;BME280;37452;51.938;4.624;2023-07-16T03:24:41;75916.81;;;-142.75;100.00
41632;BME280;37452;51.938;4.624;2023-07-16T03:27:06;75920.75;;;-142.75;100.00
41632;BME280;37452;51.938;4.624;2023-07-16T03:29:33;75916.81;;;-142.75;100.00
41632;BME280;37452;51.938;4.624;2023-07-16T03:31:58;75932.56;;;-142.75;100.00
41632;BME280;37452;51.938;4.624;2023-07-16T03:34:23;75924.69;;;-142.75;100.00
41632;BME280;37452;51.938;4.624;2023-07-16T03:36:49;75920.75;;;-142.75;100.00
41632;BME280;37452;51.938;4.624;2023-07-16T03:39:14;75932.56;;;-142.75;100.00
41632;BME280;37452;51.938;4.624;2023-07-16T03:41:39;75940.44;;;-142.75;100.00
41632;BME280;37452;51.938;4.624;2023-07-16T03:44:05;75944.38;;;-142.75;100.00
41632;BME280;37452;51.938;4.624;2023-07-16T03:46:30;75958.16;;;-142.75;100.00
41632;BME280;37452;51.938;4.624;2023-07-16T03:48:55;75967.97;;;-142.75;100.00
41632;BME280;37452;51.938;4.624;2023-07-16T03:51:21;75960.13;;;-142.75;100.00
41632;BME280;37452;51.938;4.624;2023-07-16T03:53:46;75969.94;;;-142.75;100.00
41632;BME280;37452;51.938;4.624;2023-07-16T03:56:11;75975.84;;;-142.75;100.00
41632;BME280;37452;51.938;4.624;2023-07-16T03:58:37;75967.97;;;-142.75;100.00
41632;BME280;37452;51.938;4.624;2023-07-16T04:01:02;75973.88;;;-142.75;100.00
41632;BME280;37452;51.938;4.624;2023-07-16T04:03:27;75979.78;;;-142.75;100.00
41632;BME280;37452;51.938;4.624;2023-07-16T04:06:04;75973.88;;;-142.75;100.00
41632;BME280;37452;51.938;4.624;2023-07-16T04:08:29;75991.59;;;-142.75;100.00
41632;BME280;37452;51.938;4.624;2023-07-16T04:10:55;75979.78;;;-142.75;100.00
41632;BME280;37452;51.938;4.624;2023-07-16T04:13:20;75973.88;;;-142.75;100.00
41632;BME280;37452;51.938;4.624;2023-07-16T04:15:45;75991.59;;;-142.75;100.00
41632;BME280;37452;51.938;4.624;2023-07-16T04:18:11;75987.66;;;-142.75;100.00
41632;BME280;37452;51.938;4.624;2023-07-16T04:20:36;75985.69;;;-142.75;100.00
41632;BME280;37452;51.938;4.624;2023-07-16T04:23:01;75989.63;;;-142.75;100.00
41632;BME280;37452;51.938;4.624;2023-07-16T04:25:27;75987.66;;;-142.75;100.00
41632;BME280;37452;51.938;4.624;2023-07-16T04:27:52;75997.50;;;-142.75;100.00
41632;BME280;37452;51.938;4.624;2023-07-16T04:30:17;75993.56;;;-142.75;100.00
41632;BME280;37452;51.938;4.624;2023-07-16T04:32:43;75989.63;;;-142.75;100.00
41632;BME280;37452;51.938;4.624;2023-07-16T04:35:08;75979.78;;;-142.75;100.00
41632;BME280;37452;51.938;4.624;2023-07-16T04:37:34;75979.78;;;-142.75;100.00
41632;BME280;37452;51.938;4.624;2023-07-16T04:39:59;75975.84;;;-142.75;100.00
41632;BME280;37452;51.938;4.624;2023-07-16T04:42:24;75973.88;;;-142.75;100.00
41632;BME280;37452;51.938;4.624;2023-07-16T04:44:50;75966.00;;;-142.75;100.00
41632;BME280;37452;51.938;4.624;2023-07-16T04:47:15;75962.09;;;-142.75;100.00
41632;BME280;37452;51.938;4.624;2023-07-16T04:49:40;75967.97;;;-142.75;100.00
41632;BME280;37452;51.938;4.624;2023-07-16T04:52:06;75987.66;;;-142.75;100.00
41632;BME280;37452;51.938;4.624;2023-07-16T04:54:36;75971.91;;;-142.75;100.00
41632;BME280;37452;51.938;4.624;2023-07-16T04:57:01;75987.66;;;-142.75;100.00
41632;BME280;37452;51.938;4.624;2023-07-16T04:59:27;75971.91;;;-142.75;100.00
41632;BME280;37452;51.938;4.624;2023-07-16T05:01:52;75973.88;;;-142.75;100.00
41632;BME280;37452;51.938;4.624;2023-07-16T05:04:17;75979.78;;;-142.75;100.00
41632;BME280;37452;51.938;4.624;2023-07-16T05:06:43;75979.78;;;-142.75;100.00
41632;BME280;37452;51.938;4.624;2023-07-16T05:09:08;75964.03;;;-142.75;100.00
41632;BME280;37452;51.938;4.624;2023-07-16T05:11:33;75960.13;;;-142.75;100.00
41632;BME280;37452;51.938;4.624;2023-07-16T05:13:59;75975.84;;;-142.75;100.00
41632;BME280;37452;51.938;4.624;2023-07-16T05:16:24;75967.97;;;-142.75;100.00
41632;BME280;37452;51.938;4.624;2023-07-16T05:18:49;75960.13;;;-142.75;100.00
41632;BME280;37452;51.938;4.624;2023-07-16T05:21:15;75967.97;;;-142.75;100.00
41632;BME280;37452;51.938;4.624;2023-07-16T05:23:40;75960.13;;;-142.75;100.00
41632;BME280;37452;51.938;4.624;2023-07-16T05:26:05;75954.22;;;-142.75;100.00
41632;BME280;37452;51.938;4.624;2023-07-16T05:28:31;75975.84;;;-142.75;100.00
41632;BME280;37452;51.938;4.624;2023-07-16T05:31:03;75946.34;;;-142.75;100.00
41632;BME280;37452;51.938;4.624;2023-07-16T05:33:28;75940.44;;;-142.75;100.00
41632;BME280;37452;51.938;4.624;2023-07-16T05:35:54;75944.38;;;-142.75;100.00
41632;BME280;37452;51.938;4.624;2023-07-16T05:38:19;75938.47;;;-142.75;100.00
41632;BME280;37452;51.938;4.624;2023-07-16T05:40:45;75920.75;;;-142.75;100.00
41632;BME280;37452;51.938;4.624;2023-07-16T05:43:10;75920.75;;;-142.75;100.00
41632;BME280;37452;51.938;4.624;2023-07-16T05:45:36;75940.44;;;-142.75;100.00
41632;BME280;37452;51.938;4.624;2023-07-16T05:48:01;75916.81;;;-142.75;100.00
41632;BME280;37452;51.938;4.624;2023-07-16T05:50:27;75914.84;;;-142.75;100.00
41632;BME280;37452;51.938;4.624;2023-07-16T05:52:52;75940.44;;;-142.75;100.00
41632;BME280;37452;51.938;4.624;2023-07-16T05:55:18;75924.69;;;-142.75;100.00
41632;BME280;37452;51.938;4.624;2023-07-16T05:57:43;75932.56;;;-142.75;100.00
41632;BME280;37452;51.938;4.624;2023-07-16T06:00:09;75960.13;;;-142.75;100.00
41632;BME280;37452;51.938;4.624;2023-07-16T06:02:35;75946.34;;;-142.75;100.00
41632;BME280;37452;51.938;4.624;2023-07-16T06:05:00;75936.50;;;-142.75;100.00
41632;BME280;37452;51.938;4.624;2023-07-16T06:07:26;75924.69;;;-142.75;100.00
41632;BME280;37452;51.938;4.624;2023-07-16T06:09:51;75924.69;;;-142.75;100.00
41632;BME280;37452;51.938;4.624;2023-07-16T06:12:16;75910.91;;;-142.75;100.00
41632;BME280;37452;51.938;4.624;2023-07-16T06:14:42;75889.25;;;-142.75;100.00
41632;BME280;37452;51.938;4.624;2023-07-16T06:17:07;75899.09;;;-142.75;100.00
41632;BME280;37452;51.938;4.624;2023-07-16T06:19:32;75895.16;;;-142.75;100.00
41632;BME280;37452;51.938;4.624;2023-07-16T06:21:58;75897.13;;;-142.75;100.00
41632;BME280;37452;51.938;4.624;2023-07-16T06:24:23;75905.00;;;-142.75;100.00
41632;BME280;37452;51.938;4.624;2023-07-16T06:26:48;75910.91;;;-142.75;100.00
41632;BME280;37452;51.938;4.624;2023-07-16T06:29:14;75916.81;;;-142.75;100.00
41632;BME280;37452;51.938;4.624;2023-07-16T06:31:42;75928.63;;;-142.75;100.00
41632;BME280;37452;51.938;4.624;2023-07-16T06:34:07;75948.31;;;-142.75;100.00
41632;BME280;37452;51.938;4.624;2023-07-16T06:36:33;75964.03;;;-142.75;100.00
41632;BME280;37452;51.938;4.624;2023-07-16T06:38:58;75973.88;;;-142.75;100.00
41632;BME280;37452;51.938;4.624;2023-07-16T06:41:25;75940.44;;;-142.75;100.00
41632;BME280;37452;51.938;4.624;2023-07-16T06:43:50;75918.78;;;-142.75;100.00
41632;BME280;37452;51.938;4.624;2023-07-16T06:46:16;75897.13;;;-142.75;100.00
41632;BME280;37452;51.938;4.624;2023-07-16T06:48:41;75877.44;;;-142.75;100.00
41632;BME280;37452;51.938;4.624;2023-07-16T06:51:07;75838.09;;;-142.75;100.00
41632;BME280;37452;51.938;4.624;2023-07-16T06:53:32;75840.06;;;-142.75;100.00
41632;BME280;37452;51.938;4.624;2023-07-16T06:55:58;75838.09;;;-142.75;100.00
41632;BME280;37452;51.938;4.624;2023-07-16T06:58:31;75836.13;;;-142.75;100.00
41632;BME280;37452;51.938;4.624;2023-07-16T07:00:57;75883.34;;;-142.75;100.00
41632;BME280;37452;51.938;4.624;2023-07-16T07:03:22;75887.28;;;-142.75;100.00
41632;BME280;37452;51.938;4.624;2023-07-16T07:05:48;75920.75;;;-142.75;100.00
41632;BME280;37452;51.938;4.624;2023-07-16T07:08:13;75964.03;;;-142.75;100.00
41632;BME280;37452;51.938;4.624;2023-07-16T07:10:38;75946.34;;;-142.75;100.00
41632;BME280;37452;51.938;4.624;2023-07-16T07:13:04;75960.13;;;-142.75;100.00
41632;BME280;37452;51.938;4.624;2023-07-16T07:15:30;75964.03;;;-142.75;100.00
41632;BME280;37452;51.938;4.624;2023-07-16T07:17:55;75964.03;;;-142.75;100.00
41632;BME280;37452;51.938;4.624;2023-07-16T07:20:20;75905.00;;;-142.75;100.00
41632;BME280;37452;51.938;4.624;2023-07-16T07:22:46;75865.63;;;-142.75;100.00
41632;BME280;37452;51.938;4.624;2023-07-16T07:25:11;75853.84;;;-142.75;100.00
41632;BME280;37452;51.938;4.624;2023-07-16T07:27:37;75873.50;;;-142.75;100.00
41632;BME280;37452;51.938;4.624;2023-07-16T07:30:02;75893.19;;;-142.75;100.00
41632;BME280;37452;51.938;4.624;2023-07-16T07:32:28;75905.00;;;-142.75;100.00
41632;BME280;37452;51.938;4.624;2023-07-16T07:34:54;75920.75;;;-142.75;100.00
41632;BME280;37452;51.938;4.624;2023-07-16T07:37:19;75920.75;;;-142.75;100.00
41632;BME280;37452;51.938;4.624;2023-07-16T07:39:44;75948.31;;;-142.75;100.00
41632;BME280;37452;51.938;4.624;2023-07-16T07:42:13;75936.50;;;-142.75;100.00
41632;BME280;37452;51.938;4.624;2023-07-16T07:44:38;75908.94;;;-142.75;100.00
41632;BME280;37452;51.938;4.624;2023-07-16T07:47:04;75889.25;;;-142.75;100.00
41632;BME280;37452;51.938;4.624;2023-07-16T07:49:29;75912.88;;;-142.75;100.00
41632;BME280;37452;51.938;4.624;2023-07-16T07:51:55;75930.59;;;-142.75;100.00
41632;BME280;37452;51.938;4.624;2023-07-16T07:54:20;75942.41;;;-142.75;100.00
41632;BME280;37452;51.938;4.624;2023-07-16T07:56:46;75954.22;;;-142.75;100.00
41632;BME280;37452;51.938;4.624;2023-07-16T07:59:11;75948.31;;;-142.75;100.00
41632;BME280;37452;51.938;4.624;2023-07-16T08:01:37;75975.84;;;-142.75;100.00
41632;BME280;37452;51.938;4.624;2023-07-16T08:04:02;75973.88;;;-142.75;100.00
41632;BME280;37452;51.938;4.624;2023-07-16T08:06:27;75969.94;;;-142.75;100.00
41632;BME280;37452;51.938;4.624;2023-07-16T08:08:53;75954.22;;;-142.75;100.00
41632;BME280;37452;51.938;4.624;2023-07-16T08:11:18;75952.25;;;-142.75;100.00
41632;BME280;37452;51.938;4.624;2023-07-16T08:13:43;75920.75;;;-142.75;100.00
41632;BME280;37452;51.938;4.624;2023-07-16T08:16:09;75914.84;;;-142.75;100.00
41632;BME280;37452;51.938;4.624;2023-07-16T08:18:35;75906.97;;;-142.75;100.00
41632;BME280;37452;51.938;4.624;2023-07-16T08:21:00;75895.16;;;-142.75;100.00
41632;BME280;37452;51.938;4.624;2023-07-16T08:23:25;75895.16;;;-142.75;100.00
41632;BME280;37452;51.938;4.624;2023-07-16T08:25:51;75912.88;;;-142.75;100.00
41632;BME280;37452;51.938;4.624;2023-07-16T08:28:16;75906.97;;;-142.75;100.00
41632;BME280;37452;51.938;4.624;2023-07-16T08:30:41;75920.75;;;-142.75;100.00
41632;BME280;37452;51.938;4.624;2023-07-16T08:33:07;75932.56;;;-142.75;100.00
41632;BME280;37452;51.938;4.624;2023-07-16T08:35:32;75928.63;;;-142.75;100.00
41632;BME280;37452;51.938;4.624;2023-07-16T08:37:58;75932.56;;;-142.75;100.00
41632;BME280;37452;51.938;4.624;2023-07-16T08:40:23;75934.53;;;-142.75;100.00
41632;BME280;37452;51.938;4.624;2023-07-16T08:42:49;75928.63;;;-142.75;100.00
41632;BME280;37452;51.938;4.624;2023-07-16T08:45:15;75908.94;;;-142.75;100.00
41632;BME280;37452;51.938;4.624;2023-07-16T08:47:43;75912.88;;;-142.75;100.00
41632;BME280;37452;51.938;4.624;2023-07-16T08:50:09;75912.88;;;-142.75;100.00
41632;BME280;37452;51.938;4.624;2023-07-16T08:52:34;75901.06;;;-142.75;100.00
41632;BME280;37452;51.938;4.624;2023-07-16T08:55:00;75924.69;;;-142.75;100.00
41632;BME280;37452;51.938;4.624;2023-07-16T08:57:26;75889.25;;;-142.75;100.00
41632;BME280;37452;51.938;4.624;2023-07-16T08:59:52;75861.69;;;-142.75;100.00
41632;BME280;37452;51.938;4.624;2023-07-16T09:02:18;75853.84;;;-142.75;100.00
41632;BME280;37452;51.938;4.624;2023-07-16T09:04:45;75865.63;;;-142.75;100.00
41632;BME280;37452;51.938;4.624;2023-07-16T09:07:11;75889.25;;;-142.75;100.00
41632;BME280;37452;51.938;4.624;2023-07-16T09:09:36;75881.38;;;-142.75;100.00
41632;BME280;37452;51.938;4.624;2023-07-16T09:12:02;75889.25;;;-142.75;100.00
41632;BME280;37452;51.938;4.624;2023-07-16T09:14:27;75901.06;;;-142.75;100.00
41632;BME280;37452;51.938;4.624;2023-07-16T09:16:53;75924.69;;;-142.75;100.00
41632;BME280;37452;51.938;4.624;2023-07-16T09:19:19;75912.88;;;-142.75;100.00
41632;BME280;37452;51.938;4.624;2023-07-16T09:21:49;75865.63;;;-142.75;100.00
41632;BME280;37452;51.938;4.624;2023-07-16T09:24:14;75845.97;;;-142.75;100.00
41632;BME280;37452;51.938;4.624;2023-07-16T09:26:51;75810.53;;;-142.75;100.00
41632;BME280;37452;51.938;4.624;2023-07-16T09:29:17;75777.06;;;-142.75;100.00
41632;BME280;37452;51.938;4.624;2023-07-16T09:34:20;75804.63;;;-142.75;100.00
41632;BME280;37452;51.938;4.624;2023-07-16T09:36:49;75834.16;;;-142.75;100.00
41632;BME280;37452;51.938;4.624;2023-07-16T09:39:16;75814.47;;;-142.75;100.00
41632;BME280;37452;51.938;4.624;2023-07-16T09:41:43;75845.97;;;-142.75;100.00
41632;BME280;37452;51.938;4.624;2023-07-16T09:44:09;75845.97;;;-142.75;100.00
41632;BME280;37452;51.938;4.624;2023-07-16T09:46:35;75869.56;;;-142.75;100.00
41632;BME280;37452;51.938;4.624;2023-07-16T09:49:01;75879.41;;;-142.75;100.00
41632;BME280;37452;51.938;4.624;2023-07-16T09:51:28;75885.31;;;-142.75;100.00
41632;BME280;37452;51.938;4.624;2023-07-16T09:53:55;75889.25;;;-142.75;100.00
41632;BME280;37452;51.938;4.624;2023-07-16T09:56:24;75867.59;;;-142.75;100.00
41632;BME280;37452;51.938;4.624;2023-07-16T09:58:55;75845.97;;;-142.75;100.00
41632;BME280;37452;51.938;4.624;2023-07-16T10:01:21;75779.03;;;-142.75;100.00
41632;BME280;37452;51.938;4.624;2023-07-16T10:03:50;75721.97;;;-142.75;100.00
41632;BME280;37452;51.938;4.624;2023-07-16T10:06:15;75751.50;;;-142.75;100.00
41632;BME280;37452;51.938;4.624;2023-07-16T10:08:49;75720.00;;;-142.75;100.00
41632;BME280;37452;51.938;4.624;2023-07-16T10:11:16;75692.44;;;-142.75;100.00
41632;BME280;37452;51.938;4.624;2023-07-16T10:13:42;75700.31;;;-142.75;100.00
41632;BME280;37452;51.938;4.624;2023-07-16T10:16:07;75747.56;;;-142.75;100.00
41632;BME280;37452;51.938;4.624;2023-07-16T10:18:35;75781.00;;;-142.75;100.00
41632;BME280;37452;51.938;4.624;2023-07-16T10:21:06;75779.03;;;-142.75;100.00
41632;BME280;37452;51.938;4.624;2023-07-16T10:26:05;75723.94;;;-142.75;100.00
41632;BME280;37452;51.938;4.624;2023-07-16T10:28:37;75704.25;;;-142.75;100.00
41632;BME280;37452;51.938;4.624;2023-07-16T10:31:03;75712.13;;;-142.75;100.00
41632;BME280;37452;51.938;4.624;2023-07-16T10:33:28;75692.44;;;-142.75;100.00
41632;BME280;37452;51.938;4.624;2023-07-16T10:35:56;75716.06;;;-142.75;100.00
41632;BME280;37452;51.938;4.624;2023-07-16T10:38:22;75662.94;;;-142.75;100.00
41632;BME280;37452;51.938;4.624;2023-07-16T10:40:48;75655.06;;;-142.75;100.00
41632;BME280;37452;51.938;4.624;2023-07-16T10:43:14;75631.44;;;-142.75;100.00
41632;BME280;37452;51.938;4.624;2023-07-16T10:45:40;75659.00;;;-142.75;100.00
41632;BME280;37452;51.938;4.624;2023-07-16T10:48:05;75597.97;;;-142.75;100.00
41632;BME280;37452;51.938;4.624;2023-07-16T10:50:34;75641.28;;;-142.75;100.00
41632;BME280;37452;51.938;4.624;2023-07-16T10:53:00;75712.13;;;-142.75;98.23
41632;BME280;37452;51.938;4.624;2023-07-16T10:55:28;75714.09;;;-142.75;100.00
41632;BME280;37452;51.938;4.624;2023-07-16T10:57:53;75723.94;;;-142.75;100.00
41632;BME280;37452;51.938;4.624;2023-07-16T11:00:20;75710.16;;;-142.75;100.00
41632;BME280;37452;51.938;4.624;2023-07-16T11:02:46;75757.41;;;-142.75;100.00
41632;BME280;37452;51.938;4.624;2023-07-16T11:05:16;75763.28;;;-142.75;100.00
41632;BME280;37452;51.938;4.624;2023-07-16T11:07:51;75712.13;;;-142.75;100.00
41632;BME280;37452;51.938;4.624;2023-07-16T11:10:17;75668.84;;;-142.75;100.00
41632;BME280;37452;51.938;4.624;2023-07-16T11:12:43;75682.59;;;-142.75;100.00
41632;BME280;37452;51.938;4.624;2023-07-16T11:15:09;75672.78;;;-142.75;100.00
41632;BME280;37452;51.938;4.624;2023-07-16T11:17:37;75672.78;;;-142.75;100.00
41632;BME280;37452;51.938;4.624;2023-07-16T11:20:08;75714.09;;;-142.75;100.00
41632;BME280;37452;51.938;4.624;2023-07-16T11:22:37;75743.63;;;-142.75;100.00
41632;BME280;37452;51.938;4.624;2023-07-16T11:25:04;75739.69;;;-142.75;99.45
41632;BME280;37452;51.938;4.624;2023-07-16T11:27:32;75733.78;;;-142.75;100.00
41632;BME280;37452;51.938;4.624;2023-07-16T11:29:59;75708.19;;;-142.75;100.00
41632;BME280;37452;51.938;4.624;2023-07-16T11:34:57;75704.25;;;-142.75;100.00
41632;BME280;37452;51.938;4.624;2023-07-16T11:37:30;75688.50;;;-142.75;100.00
41632;BME280;37452;51.938;4.624;2023-07-16T11:39:57;75759.38;;;-142.75;100.00
41632;BME280;37452;51.938;4.624;2023-07-16T11:44:56;75727.88;;;-142.75;100.00
41632;BME280;37452;51.938;4.624;2023-07-16T11:47:22;75720.00;;;-142.75;100.00
41632;BME280;37452;51.938;4.624;2023-07-16T11:49:48;75737.72;;;-142.75;100.00
41632;BME280;37452;51.938;4.624;2023-07-16T11:52:14;75716.06;;;-142.75;100.00
41632;BME280;37452;51.938;4.624;2023-07-16T11:54:39;75704.25;;;-142.75;100.00
41632;BME280;37452;51.938;4.624;2023-07-16T11:57:05;75700.31;;;-142.75;100.00
41632;BME280;37452;51.938;4.624;2023-07-16T11:59:30;75702.28;;;-142.75;100.00
41632;BME280;37452;51.938;4.624;2023-07-16T12:01:56;75718.03;;;-142.75;100.00
41632;BME280;37452;51.938;4.624;2023-07-16T12:04:21;75666.88;;;-142.75;100.00
41632;BME280;37452;51.938;4.624;2023-07-16T12:06:46;75647.19;;;-142.75;99.53
41632;BME280;37452;51.938;4.624;2023-07-16T12:09:12;75657.03;;;-142.75;100.00
41632;BME280;37452;51.938;4.624;2023-07-16T12:11:37;75664.91;;;-142.75;97.99
41632;BME280;37452;51.938;4.624;2023-07-16T12:14:04;75637.34;;;-142.75;99.30
41632;BME280;37452;51.938;4.624;2023-07-16T12:16:29;75651.13;;;-142.75;92.81
41632;BME280;37452;51.938;4.624;2023-07-16T12:18:55;75619.63;;;-142.75;92.77
41632;BME280;37452;51.938;4.624;2023-07-16T12:21:20;75603.88;;;-142.75;94.48
41632;BME280;37452;51.938;4.624;2023-07-16T12:23:45;75621.59;;;-142.75;93.04
41632;BME280;37452;51.938;4.624;2023-07-16T12:26:11;75629.47;;;-142.75;92.50
41632;BME280;37452;51.938;4.624;2023-07-16T12:28:37;75662.94;;;-142.75;94.23
41632;BME280;37452;51.938;4.624;2023-07-16T12:31:02;75716.06;;;-142.75;90.13
41632;BME280;37452;51.938;4.624;2023-07-16T12:33:27;75721.97;;;-142.75;93.88
41632;BME280;37452;51.938;4.624;2023-07-16T12:35:53;75737.72;;;-142.75;97.75
41632;BME280;37452;51.938;4.624;2023-07-16T12:38:18;75747.56;;;-142.75;95.22
41632;BME280;37452;51.938;4.624;2023-07-16T12:40:44;75720.00;;;-142.75;96.16
41632;BME280;37452;51.938;4.624;2023-07-16T12:43:09;75731.81;;;-142.75;94.68